sensor_id;sensor_type;location;lat;lon;timestamp;pressure;altitude;pressure_sealevel;temperature;humidity
79131;BME280;72396;45.194;9.142;2023-11-18T00:01:15;101138.19;;;21.52;44.74
79131;BME280;72396;45.194;9.142;2023-11-18T00:03:40;101151.63;;;21.52;44.71
79131;BME280;72396;45.194;9.142;2023-11-18T00:06:06;101138.63;;;21.46;44.66
79131;BME280;72396;45.194;9.142;2023-11-18T00:08:33;101152.03;;;21.46;44.36
79131;BME280;72396;45.194;9.142;2023-11-18T00:10:58;101153.00;;;21.45;44.61
79131;BME280;72396;45.194;9.142;2023-11-18T00:13:23;101143.03;;;21.47;44.37
79131;BME280;72396;45.194;9.142;2023-11-18T00:15:50;101149.16;;;21.49;44.49
79131;BME280;72396;45.194;9.142;2023-11-18T00:18:16;101156.44;;;21.47;44.49
79131;BME280;72396;45.194;9.142;2023-11-18T00:20:41;101149.16;;;21.49;44.59
79131;BME280;72396;45.194;9.142;2023-11-18T00:23:08;101152.91;;;21.47;44.20
79131;BME280;72396;45.194;9.142;2023-11-18T00:25:33;101144.00;;;21.46;44.36
79131;BME280;72396;45.194;9.142;2023-11-18T00:28:00;101142.28;;;21.45;44.66
79131;BME280;72396;45.194;9.142;2023-11-18T00:30:25;101137.03;;;21.43;44.18
79131;BME280;72396;45.194;9.142;2023-11-18T00:32:51;101146.81;;;21.44;44.19
79131;BME280;72396;45.194;9.142;2023-11-18T00:35:17;101147.22;;;21.38;44.06
79131;BME280;72396;45.194;9.142;2023-11-18T00:37:42;101152.59;;;21.38;43.76
79131;BME280;72396;45.194;9.142;2023-11-18T00:40:09;101165.25;;;21.36;43.73
79131;BME280;72396;45.194;9.142;2023-11-18T00:42:34;101180.28;;;21.39;43.72
79131;BME280;72396;45.194;9.142;2023-11-18T00:45:00;101183.84;;;21.39;43.67
79131;BME280;72396;45.194;9.142;2023-11-18T00:47:25;101180.63;;;21.34;43.44
79131;BME280;72396;45.194;9.142;2023-11-18T00:49:50;101181.72;;;21.32;43.42
79131;BME280;72396;45.194;9.142;2023-11-18T00:52:18;101186.53;;;21.39;43.62
79131;BME280;72396;45.194;9.142;2023-11-18T00:54:43;101186.63;;;21.38;43.59
79131;BME280;72396;45.194;9.142;2023-11-18T00:57:09;101182.22;;;21.37;43.50
79131;BME280;72396;45.194;9.142;2023-11-18T00:59:34;101186.84;;;21.35;43.36
79131;BME280;72396;45.194;9.142;2023-11-18T01:02:00;101204.53;;;21.37;43.21
79131;BME280;72396;45.194;9.142;2023-11-18T01:04:25;101208.09;;;21.38;43.68
79131;BME280;72396;45.194;9.142;2023-11-18T01:06:51;101214.66;;;21.34;43.09
79131;BME280;72396;45.194;9.142;2023-11-18T01:09:16;101220.53;;;21.39;43.37
79131;BME280;72396;45.194;9.142;2023-11-18T01:11:42;101223.44;;;21.36;43.41
79131;BME280;72396;45.194;9.142;2023-11-18T01:14:07;101222.56;;;21.35;43.47
79131;BME280;72396;45.194;9.142;2023-11-18T01:16:33;101222.88;;;21.30;42.86
79131;BME280;72396;45.194;9.142;2023-11-18T01:18:59;101230.09;;;21.30;43.50
79131;BME280;72396;45.194;9.142;2023-11-18T01:21:25;101243.19;;;21.35;43.06
79131;BME280;72396;45.194;9.142;2023-11-18T01:23:50;101253.03;;;21.34;43.27
79131;BME280;72396;45.194;9.142;2023-11-18T01:26:15;101253.91;;;21.35;43.23
79131;BME280;72396;45.194;9.142;2023-11-18T01:28:41;101252.94;;;21.36;43.09
79131;BME280;72396;45.194;9.142;2023-11-18T01:31:08;101248.66;;;21.33;43.01
79131;BME280;72396;45.194;9.142;2023-11-18T01:33:38;101252.06;;;21.35;43.28
79131;BME280;72396;45.194;9.142;2023-11-18T01:36:08;101250.91;;;21.26;42.82
79131;BME280;72396;45.194;9.142;2023-11-18T01:38:38;101243.50;;;21.30;43.15
79131;BME280;72396;45.194;9.142;2023-11-18T01:41:04;101257.56;;;21.34;42.95
79131;BME280;72396;45.194;9.142;2023-11-18T01:43:30;101254.97;;;21.32;42.76
79131;BME280;72396;45.194;9.142;2023-11-18T01:46:00;101254.88;;;21.34;42.70
79131;BME280;72396;45.194;9.142;2023-11-18T01:48:28;101256.81;;;21.32;42.66
79131;BME280;72396;45.194;9.142;2023-11-18T01:50:56;101256.03;;;21.29;42.53
79131;BME280;72396;45.194;9.142;2023-11-18T01:53:23;101259.69;;;21.28;42.09
79131;BME280;72396;45.194;9.142;2023-11-18T01:55:49;101269.47;;;21.29;42.38
79131;BME280;72396;45.194;9.142;2023-11-18T01:58:15;101278.38;;;21.30;42.30
79131;BME280;72396;45.194;9.142;2023-11-18T02:00:45;101279.34;;;21.29;42.50
79131;BME280;72396;45.194;9.142;2023-11-18T02:03:14;101269.81;;;21.25;42.30
79131;BME280;72396;45.194;9.142;2023-11-18T02:05:39;101266.03;;;21.27;42.32
79131;BME280;72396;45.194;9.142;2023-11-18T02:08:07;101252.00;;;21.24;42.45
79131;BME280;72396;45.194;9.142;2023-11-18T02:10:47;101252.09;;;21.22;42.13
79131;BME280;72396;45.194;9.142;2023-11-18T02:13:21;101259.16;;;21.23;42.14
79131;BME280;72396;45.194;9.142;2023-11-18T02:15:52;101275.03;;;21.26;42.21
79131;BME280;72396;45.194;9.142;2023-11-18T02:18:19;101285.91;;;21.25;42.21
79131;BME280;72396;45.194;9.142;2023-11-18T02:20:46;101291.03;;;21.28;42.08
79131;BME280;72396;45.194;9.142;2023-11-18T02:23:13;101287.69;;;21.24;42.16
79131;BME280;72396;45.194;9.142;2023-11-18T02:25:47;101270.75;;;21.11;41.71
79131;BME280;72396;45.194;9.142;2023-11-18T02:28:13;101297.69;;;21.22;41.99
79131;BME280;72396;45.194;9.142;2023-11-18T02:30:40;101286.00;;;21.23;42.11
79131;BME280;72396;45.194;9.142;2023-11-18T02:33:18;101301.34;;;21.21;42.00
79131;BME280;72396;45.194;9.142;2023-11-18T02:35:55;101282.78;;;21.18;41.60
79131;BME280;72396;45.194;9.142;2023-11-18T02:38:33;101291.66;;;21.19;41.97
79131;BME280;72396;45.194;9.142;2023-11-18T02:41:06;101282.34;;;21.11;41.84
79131;BME280;72396;45.194;9.142;2023-11-18T02:43:35;101280.72;;;21.09;41.96
79131;BME280;72396;45.194;9.142;2023-11-18T02:46:03;101284.81;;;21.14;41.59
79131;BME280;72396;45.194;9.142;2023-11-18T02:48:30;101283.09;;;21.13;41.83
79131;BME280;72396;45.194;9.142;2023-11-18T02:50:57;101292.63;;;21.18;41.86
79131;BME280;72396;45.194;9.142;2023-11-18T02:53:22;101299.84;;;21.17;41.43
79131;BME280;72396;45.194;9.142;2023-11-18T02:55:47;101290.25;;;21.13;41.70
79131;BME280;72396;45.194;9.142;2023-11-18T02:58:13;101282.44;;;21.10;41.51
79131;BME280;72396;45.194;9.142;2023-11-18T03:00:38;101289.28;;;21.14;41.51
79131;BME280;72396;45.194;9.142;2023-11-18T03:03:04;101283.19;;;21.12;41.71
79131;BME280;72396;45.194;9.142;2023-11-18T03:05:30;101292.94;;;21.13;41.63
79131;BME280;72396;45.194;9.142;2023-11-18T03:07:55;101288.44;;;21.13;41.66
79131;BME280;72396;45.194;9.142;2023-11-18T03:10:23;101289.63;;;21.09;41.59
79131;BME280;72396;45.194;9.142;2023-11-18T03:12:52;101278.03;;;21.09;41.50
79131;BME280;72396;45.194;9.142;2023-11-18T03:15:18;101285.25;;;21.08;41.40
79131;BME280;72396;45.194;9.142;2023-11-18T03:17:45;101275.78;;;21.03;41.39
79131;BME280;72396;45.194;9.142;2023-11-18T03:20:11;101280.84;;;21.07;41.43
79131;BME280;72396;45.194;9.142;2023-11-18T03:22:40;101278.16;;;21.07;41.27
79131;BME280;72396;45.194;9.142;2023-11-18T03:25:05;101270.22;;;21.06;41.34
79131;BME280;72396;45.194;9.142;2023-11-18T03:27:32;101256.47;;;20.97;41.45
79131;BME280;72396;45.194;9.142;2023-11-18T03:29:58;101267.00;;;21.00;41.13
79131;BME280;72396;45.194;9.142;2023-11-18T03:32:23;101265.06;;;21.03;41.22
79131;BME280;72396;45.194;9.142;2023-11-18T03:34:48;101262.78;;;20.96;41.04
79131;BME280;72396;45.194;9.142;2023-11-18T03:37:14;101268.94;;;20.98;41.24
79131;BME280;72396;45.194;9.142;2023-11-18T03:39:39;101268.06;;;20.98;41.18
79131;BME280;72396;45.194;9.142;2023-11-18T03:42:04;101257.66;;;20.93;41.34
79131;BME280;72396;45.194;9.142;2023-11-18T03:44:30;101268.16;;;20.96;40.90
79131;BME280;72396;45.194;9.142;2023-11-18T03:46:55;101268.16;;;20.96;41.05
79131;BME280;72396;45.194;9.142;2023-11-18T03:49:20;101268.38;;;20.93;40.83
79131;BME280;72396;45.194;9.142;2023-11-18T03:51:46;101262.47;;;20.88;40.88
79131;BME280;72396;45.194;9.142;2023-11-18T03:54:11;101264.19;;;20.89;41.07
79131;BME280;72396;45.194;9.142;2023-11-18T03:56:38;101271.72;;;20.97;40.93
79131;BME280;72396;45.194;9.142;2023-11-18T03:59:03;101277.06;;;20.97;40.83
79131;BME280;72396;45.194;9.142;2023-11-18T04:01:29;101269.34;;;20.92;40.79
79131;BME280;72396;45.194;9.142;2023-11-18T04:03:55;101277.06;;;20.97;40.81
79131;BME280;72396;45.194;9.142;2023-11-18T04:06:21;101292.28;;;20.96;40.64
79131;BME280;72396;45.194;9.142;2023-11-18T04:08:47;101285.19;;;20.95;40.72
79131;BME280;72396;45.194;9.142;2023-11-18T04:11:13;101295.09;;;20.95;40.62
79131;BME280;72396;45.194;9.142;2023-11-18T04:13:42;101291.66;;;20.93;40.64
79131;BME280;72396;45.194;9.142;2023-11-18T04:16:11;101298.81;;;20.92;40.58
79131;BME280;72396;45.194;9.142;2023-11-18T04:18:44;101293.88;;;20.86;40.60
79131;BME280;72396;45.194;9.142;2023-11-18T04:21:11;101298.81;;;20.92;40.53
79131;BME280;72396;45.194;9.142;2023-11-18T04:23:37;101296.06;;;20.94;40.67
79131;BME280;72396;45.194;9.142;2023-11-18T04:26:07;101299.78;;;20.91;40.40
79131;BME280;72396;45.194;9.142;2023-11-18T04:28:36;101297.53;;;20.85;40.38
79131;BME280;72396;45.194;9.142;2023-11-18T04:31:02;101309.00;;;20.87;40.40
79131;BME280;72396;45.194;9.142;2023-11-18T04:33:28;101295.22;;;20.79;40.49
79131;BME280;72396;45.194;9.142;2023-11-18T04:35:57;101303.53;;;20.89;40.42
79131;BME280;72396;45.194;9.142;2023-11-18T04:38:23;101296.00;;;20.81;40.50
79131;BME280;72396;45.194;9.142;2023-11-18T04:40:48;101303.88;;;20.84;40.35
79131;BME280;72396;45.194;9.142;2023-11-18T04:43:14;101308.13;;;20.86;40.36
79131;BME280;72396;45.194;9.142;2023-11-18T04:45:40;101313.63;;;20.85;40.31
79131;BME280;72396;45.194;9.142;2023-11-18T04:48:06;101298.03;;;20.77;40.23
79131;BME280;72396;45.194;9.142;2023-11-18T04:50:31;101304.69;;;20.84;40.28
79131;BME280;72396;45.194;9.142;2023-11-18T04:52:58;101304.81;;;20.83;40.17
79131;BME280;72396;45.194;9.142;2023-11-18T04:55:23;101312.75;;;20.84;40.05
79131;BME280;72396;45.194;9.142;2023-11-18T04:57:49;101315.81;;;20.78;40.09
79131;BME280;72396;45.194;9.142;2023-11-18T05:00:14;101319.34;;;20.79;40.02
79131;BME280;72396;45.194;9.142;2023-11-18T05:02:43;101322.03;;;20.79;40.30
79131;BME280;72396;45.194;9.142;2023-11-18T05:05:09;101317.53;;;20.79;39.87
79131;BME280;72396;45.194;9.142;2023-11-18T05:07:36;101312.19;;;20.79;39.91
79131;BME280;72396;45.194;9.142;2023-11-18T05:10:02;101321.06;;;20.80;39.83
79131;BME280;72396;45.194;9.142;2023-11-18T05:12:28;101321.19;;;20.78;40.01
79131;BME280;72396;45.194;9.142;2023-11-18T05:14:55;101323.75;;;20.80;40.05
79131;BME280;72396;45.194;9.142;2023-11-18T05:17:22;101324.44;;;20.83;40.13
79131;BME280;72396;45.194;9.142;2023-11-18T05:19:48;101318.38;;;20.80;39.97
79131;BME280;72396;45.194;9.142;2023-11-18T05:22:13;101325.19;;;20.85;40.11
79131;BME280;72396;45.194;9.142;2023-11-18T05:24:38;101314.38;;;20.87;40.02
79131;BME280;72396;45.194;9.142;2023-11-18T05:27:04;101322.41;;;20.87;39.89
79131;BME280;72396;45.194;9.142;2023-11-18T05:29:30;101313.00;;;20.80;39.64
79131;BME280;72396;45.194;9.142;2023-11-18T05:31:55;101321.66;;;20.85;39.76
79131;BME280;72396;45.194;9.142;2023-11-18T05:34:21;101318.97;;;20.85;39.55
79131;BME280;72396;45.194;9.142;2023-11-18T05:36:47;101312.19;;;20.79;39.91
79131;BME280;72396;45.194;9.142;2023-11-18T05:39:16;101326.91;;;20.86;39.54
79131;BME280;72396;45.194;9.142;2023-11-18T05:41:42;101317.06;;;20.87;39.44
79131;BME280;72396;45.194;9.142;2023-11-18T05:44:11;101316.28;;;20.85;39.57
79131;BME280;72396;45.194;9.142;2023-11-18T05:46:43;101306.63;;;20.82;39.49
79131;BME280;72396;45.194;9.142;2023-11-18T05:49:11;101314.75;;;20.81;39.52
79131;BME280;72396;45.194;9.142;2023-11-18T05:51:39;101317.63;;;20.78;39.37
79131;BME280;72396;45.194;9.142;2023-11-18T05:54:06;101313.72;;;20.83;39.33
79131;BME280;72396;45.194;9.142;2023-11-18T05:56:32;101320.31;;;20.78;39.23
79131;BME280;72396;45.194;9.142;2023-11-18T05:58:57;101318.38;;;20.80;39.07
79131;BME280;72396;45.194;9.142;2023-11-18T06:01:24;101324.69;;;20.79;39.25
79131;BME280;72396;45.194;9.142;2023-11-18T06:03:52;101329.09;;;20.80;39.31
79131;BME280;72396;45.194;9.142;2023-11-18T06:06:18;101336.78;;;20.86;39.25
79131;BME280;72396;45.194;9.142;2023-11-18T06:08:43;101335.16;;;20.83;39.22
79131;BME280;72396;45.194;9.142;2023-11-18T06:11:10;101346.31;;;20.90;38.97
79131;BME280;72396;45.194;9.142;2023-11-18T06:13:48;101338.38;;;20.89;39.20
79131;BME280;72396;45.194;9.142;2023-11-18T06:16:15;101330.16;;;20.92;39.26
79131;BME280;72396;45.194;9.142;2023-11-18T06:18:44;101346.13;;;20.93;38.44
79131;BME280;72396;45.194;9.142;2023-11-18T06:21:11;101339.19;;;20.76;36.96
79131;BME280;72396;45.194;9.142;2023-11-18T06:23:37;101335.31;;;20.67;36.24
79131;BME280;72396;45.194;9.142;2023-11-18T06:26:02;101338.69;;;20.56;36.13
79131;BME280;72396;45.194;9.142;2023-11-18T06:28:29;101327.53;;;20.50;35.85
79131;BME280;72396;45.194;9.142;2023-11-18T06:30:54;101340.78;;;20.24;32.37
79131;BME280;72396;45.194;9.142;2023-11-18T06:33:20;101350.94;;;19.90;35.39
79131;BME280;72396;45.194;9.142;2023-11-18T06:35:48;101344.34;;;20.10;35.61
79131;BME280;72396;45.194;9.142;2023-11-18T06:38:13;101342.72;;;19.19;34.11
79131;BME280;72396;45.194;9.142;2023-11-18T06:40:40;101357.97;;;19.62;35.60
79131;BME280;72396;45.194;9.142;2023-11-18T06:43:05;101360.63;;;20.07;36.88
79131;BME280;72396;45.194;9.142;2023-11-18T06:45:36;101367.13;;;20.44;37.21
79131;BME280;72396;45.194;9.142;2023-11-18T06:48:03;101372.25;;;20.62;36.96
79131;BME280;72396;45.194;9.142;2023-11-18T06:50:30;101371.72;;;20.70;36.57
79131;BME280;72396;45.194;9.142;2023-11-18T06:52:57;101370.25;;;20.79;36.65
79131;BME280;72396;45.194;9.142;2023-11-18T06:55:22;101375.63;;;20.79;36.56
79131;BME280;72396;45.194;9.142;2023-11-18T06:57:48;101392.41;;;20.82;36.76
79131;BME280;72396;45.194;9.142;2023-11-18T07:00:13;101386.00;;;20.85;36.82
79131;BME280;72396;45.194;9.142;2023-11-18T07:02:40;101389.44;;;20.87;36.61
79131;BME280;72396;45.194;9.142;2023-11-18T07:05:06;101397.25;;;20.90;36.50
79131;BME280;72396;45.194;9.142;2023-11-18T07:07:31;101399.94;;;20.90;36.59
79131;BME280;72396;45.194;9.142;2023-11-18T07:09:57;101406.56;;;20.84;36.75
79131;BME280;72396;45.194;9.142;2023-11-18T07:12:22;101417.19;;;20.86;36.68
79131;BME280;72396;45.194;9.142;2023-11-18T07:14:48;101426.00;;;20.88;36.82
79131;BME280;72396;45.194;9.142;2023-11-18T07:17:14;101440.16;;;20.90;36.71
79131;BME280;72396;45.194;9.142;2023-11-18T07:19:39;101449.16;;;20.89;36.77
79131;BME280;72396;45.194;9.142;2023-11-18T07:22:05;101452.03;;;20.86;36.70
79131;BME280;72396;45.194;9.142;2023-11-18T07:24:32;101458.25;;;20.86;36.55
79131;BME280;72396;45.194;9.142;2023-11-18T07:26:57;101455.47;;;20.88;36.92
79131;BME280;72396;45.194;9.142;2023-11-18T07:29:25;101445.44;;;20.92;37.52
79131;BME280;72396;45.194;9.142;2023-11-18T07:31:52;101446.94;;;20.96;36.88
79131;BME280;72396;45.194;9.142;2023-11-18T07:34:20;101437.25;;;20.93;36.84
79131;BME280;72396;45.194;9.142;2023-11-18T07:36:46;101442.31;;;20.98;37.06
79131;BME280;72396;45.194;9.142;2023-11-18T07:39:14;101443.19;;;20.98;36.72
79131;BME280;72396;45.194;9.142;2023-11-18T07:41:49;101452.00;;;21.00;37.04
79131;BME280;72396;45.194;9.142;2023-11-18T07:44:14;101457.81;;;21.07;37.28
79131;BME280;72396;45.194;9.142;2023-11-18T07:46:41;101461.34;;;21.08;37.36
79131;BME280;72396;45.194;9.142;2023-11-18T07:49:08;101465.00;;;21.07;37.16
79131;BME280;72396;45.194;9.142;2023-11-18T07:51:34;101463.69;;;20.99;36.97
79131;BME280;72396;45.194;9.142;2023-11-18T07:53:59;101453.81;;;21.00;37.04
79131;BME280;72396;45.194;9.142;2023-11-18T07:56:25;101448.19;;;20.90;36.77
79131;BME280;72396;45.194;9.142;2023-11-18T07:58:52;101461.97;;;20.98;36.67
79131;BME280;72396;45.194;9.142;2023-11-18T08:01:17;101461.84;;;21.00;37.03
79131;BME280;72396;45.194;9.142;2023-11-18T08:03:43;101452.97;;;20.99;36.78
79131;BME280;72396;45.194;9.142;2023-11-18T08:06:10;101446.81;;;20.97;36.97
79131;BME280;72396;45.194;9.142;2023-11-18T08:08:37;101450.28;;;20.99;36.60
79131;BME280;72396;45.194;9.142;2023-11-18T08:11:06;101444.34;;;20.94;36.75
79131;BME280;72396;45.194;9.142;2023-11-18T08:13:32;101455.94;;;20.95;36.82
79131;BME280;72396;45.194;9.142;2023-11-18T08:15:57;101469.91;;;21.00;36.86
79131;BME280;72396;45.194;9.142;2023-11-18T08:18:23;101467.34;;;20.98;36.82
79131;BME280;72396;45.194;9.142;2023-11-18T08:20:49;101465.78;;;20.94;36.50
79131;BME280;72396;45.194;9.142;2023-11-18T08:23:15;101463.69;;;20.99;37.14
79131;BME280;72396;45.194;9.142;2023-11-18T08:25:40;101472.50;;;21.01;36.67
79131;BME280;72396;45.194;9.142;2023-11-18T08:28:08;101477.72;;;21.03;36.91
79131;BME280;72396;45.194;9.142;2023-11-18T08:30:42;101476.88;;;21.03;36.86
79131;BME280;72396;45.194;9.142;2023-11-18T08:33:08;101477.84;;;21.01;36.88
79131;BME280;72396;45.194;9.142;2023-11-18T08:35:37;101482.13;;;21.04;36.75
79131;BME280;72396;45.194;9.142;2023-11-18T08:38:11;101485.91;;;21.01;36.82
79131;BME280;72396;45.194;9.142;2023-11-18T08:40:37;101485.78;;;21.03;36.78
79131;BME280;72396;45.194;9.142;2023-11-18T08:43:03;101473.84;;;20.94;36.29
79131;BME280;72396;45.194;9.142;2023-11-18T08:45:33;101495.66;;;21.03;36.75
79131;BME280;72396;45.194;9.142;2023-11-18T08:48:02;101495.66;;;21.03;36.69
79131;BME280;72396;45.194;9.142;2023-11-18T08:50:37;101493.19;;;20.99;36.66
79131;BME280;72396;45.194;9.142;2023-11-18T08:53:05;101497.75;;;20.97;36.82
79131;BME280;72396;45.194;9.142;2023-11-18T08:55:31;101493.28;;;20.98;36.71
79131;BME280;72396;45.194;9.142;2023-11-18T08:58:11;101485.50;;;20.93;36.90
79131;BME280;72396;45.194;9.142;2023-11-18T09:00:54;101473.84;;;20.80;37.01
79131;BME280;72396;45.194;9.142;2023-11-18T09:03:24;101484.25;;;20.99;39.58
79131;BME280;72396;45.194;9.142;2023-11-18T09:06:06;101473.03;;;21.07;39.55
79131;BME280;72396;45.194;9.142;2023-11-18T09:08:42;101488.72;;;21.13;39.85
79131;BME280;72396;45.194;9.142;2023-11-18T09:11:10;101487.75;;;21.14;39.63
79131;BME280;72396;45.194;9.142;2023-11-18T09:13:36;101484.75;;;20.77;33.06
79131;BME280;72396;45.194;9.142;2023-11-18T09:16:06;101490.53;;;20.27;37.32
79131;BME280;72396;45.194;9.142;2023-11-18T09:18:35;101483.00;;;20.48;38.09
79131;BME280;72396;45.194;9.142;2023-11-18T09:21:02;101488.59;;;20.72;39.06
79131;BME280;72396;45.194;9.142;2023-11-18T09:23:29;101494.53;;;20.63;36.12
79131;BME280;72396;45.194;9.142;2023-11-18T09:25:57;101501.53;;;20.80;39.09
79131;BME280;72396;45.194;9.142;2023-11-18T09:28:26;101508.69;;;20.94;37.91
79131;BME280;72396;45.194;9.142;2023-11-18T09:30:54;101501.22;;;20.99;39.37
79131;BME280;72396;45.194;9.142;2023-11-18T09:33:23;101486.66;;;21.04;39.36
79131;BME280;72396;45.194;9.142;2023-11-18T09:36:02;101499.66;;;21.10;39.54
79131;BME280;72396;45.194;9.142;2023-11-18T09:38:31;101489.22;;;21.05;39.50
79131;BME280;72396;45.194;9.142;2023-11-18T09:40:58;101487.19;;;21.09;39.59
79131;BME280;72396;45.194;9.142;2023-11-18T09:43:29;101487.19;;;21.09;39.75
79131;BME280;72396;45.194;9.142;2023-11-18T09:46:03;101498.69;;;21.11;39.87
79131;BME280;72396;45.194;9.142;2023-11-18T09:48:29;101486.44;;;21.07;39.22
79131;BME280;72396;45.194;9.142;2023-11-18T09:51:04;101480.22;;;21.06;39.49
79131;BME280;72396;45.194;9.142;2023-11-18T09:53:31;101474.19;;;21.03;39.96
79131;BME280;72396;45.194;9.142;2023-11-18T09:56:17;101487.31;;;21.07;39.46
79131;BME280;72396;45.194;9.142;2023-11-18T09:59:05;101491.03;;;21.05;39.16
79131;BME280;72396;45.194;9.142;2023-11-18T10:01:35;101491.34;;;21.00;38.96
79131;BME280;72396;45.194;9.142;2023-11-18T10:04:04;101485.06;;;20.86;38.76
79131;BME280;72396;45.194;9.142;2023-11-18T10:06:34;101485.94;;;20.87;38.89
79131;BME280;72396;45.194;9.142;2023-11-18T10:09:02;101494.53;;;20.92;38.82
79131;BME280;72396;45.194;9.142;2023-11-18T10:11:40;101496.53;;;20.89;38.83
79131;BME280;72396;45.194;9.142;2023-11-18T10:14:06;101487.09;;;20.68;37.63
79131;BME280;72396;45.194;9.142;2023-11-18T10:16:33;101483.63;;;20.81;38.01
79131;BME280;72396;45.194;9.142;2023-11-18T10:18:59;101482.50;;;20.85;38.29
79131;BME280;72396;45.194;9.142;2023-11-18T10:21:34;101480.28;;;20.92;38.37
79131;BME280;72396;45.194;9.142;2023-11-18T10:24:05;101471.47;;;20.90;38.12
79131;BME280;72396;45.194;9.142;2023-11-18T10:26:35;101475.75;;;20.92;37.97
79131;BME280;72396;45.194;9.142;2023-11-18T10:29:03;101460.44;;;20.94;38.22
79131;BME280;72396;45.194;9.142;2023-11-18T10:31:33;101458.41;;;20.98;38.31
79131;BME280;72396;45.194;9.142;2023-11-18T10:34:03;101446.06;;;20.95;38.27
79131;BME280;72396;45.194;9.142;2023-11-18T10:36:29;101450.28;;;20.99;38.48
79131;BME280;72396;45.194;9.142;2023-11-18T10:38:58;101452.19;;;20.97;38.21
79131;BME280;72396;45.194;9.142;2023-11-18T10:41:25;101461.09;;;20.98;38.43
79131;BME280;72396;45.194;9.142;2023-11-18T10:44:05;101455.06;;;20.94;38.30
79131;BME280;72396;45.194;9.142;2023-11-18T10:46:32;101456.38;;;20.59;34.14
79131;BME280;72396;45.194;9.142;2023-11-18T10:48:57;101460.41;;;20.52;37.95
79131;BME280;72396;45.194;9.142;2023-11-18T10:51:23;101457.75;;;20.80;39.08
79131;BME280;72396;45.194;9.142;2023-11-18T10:53:52;101451.84;;;20.89;39.02
79131;BME280;72396;45.194;9.142;2023-11-18T10:56:19;101454.44;;;20.91;38.66
79131;BME280;72396;45.194;9.142;2023-11-18T10:58:50;101463.88;;;20.96;38.98
79131;BME280;72396;45.194;9.142;2023-11-18T11:01:26;101470.09;;;20.97;39.06
79131;BME280;72396;45.194;9.142;2023-11-18T11:03:53;101470.56;;;21.04;39.00
79131;BME280;72396;45.194;9.142;2023-11-18T11:06:23;101475.94;;;21.04;39.00
79131;BME280;72396;45.194;9.142;2023-11-18T11:08:50;101465.41;;;21.00;39.22
79131;BME280;72396;45.194;9.142;2023-11-18T11:11:37;101470.25;;;21.08;39.29
79131;BME280;72396;45.194;9.142;2023-11-18T11:14:04;101465.41;;;21.00;39.17
79131;BME280;72396;45.194;9.142;2023-11-18T11:16:41;101462.41;;;21.05;39.43
79131;BME280;72396;45.194;9.142;2023-11-18T11:19:26;101460.28;;;21.10;39.32
79131;BME280;72396;45.194;9.142;2023-11-18T11:22:04;101455.78;;;21.11;39.45
79131;BME280;72396;45.194;9.142;2023-11-18T11:27:19;101449.94;;;21.04;39.31
79131;BME280;72396;45.194;9.142;2023-11-18T11:30:20;101446.13;;;21.08;39.97
79131;BME280;72396;45.194;9.142;2023-11-18T11:35:43;101427.91;;;21.13;38.62
79131;BME280;72396;45.194;9.142;2023-11-18T11:38:12;101430.38;;;21.17;39.60
79131;BME280;72396;45.194;9.142;2023-11-18T11:40:41;101418.22;;;21.11;39.41
79131;BME280;72396;45.194;9.142;2023-11-18T11:43:09;101417.22;;;20.99;37.67
79131;BME280;72396;45.194;9.142;2023-11-18T11:45:36;101419.75;;;20.87;39.00
79131;BME280;72396;45.194;9.142;2023-11-18T11:48:03;101415.59;;;20.96;40.10
79131;BME280;72396;45.194;9.142;2023-11-18T11:51:09;101428.66;;;21.15;40.28
79131;BME280;72396;45.194;9.142;2023-11-18T11:53:42;101412.25;;;21.20;39.89
79131;BME280;72396;45.194;9.142;2023-11-18T11:56:11;101397.66;;;21.24;40.31
79131;BME280;72396;45.194;9.142;2023-11-18T11:58:45;101387.38;;;21.31;40.18
79131;BME280;72396;45.194;9.142;2023-11-18T12:01:26;101393.53;;;20.78;34.83
79131;BME280;72396;45.194;9.142;2023-11-18T12:03:58;101397.41;;;20.32;37.25
79131;BME280;72396;45.194;9.142;2023-11-18T12:06:26;101397.69;;;20.69;40.46
79131;BME280;72396;45.194;9.142;2023-11-18T12:08:52;101378.19;;;20.95;41.43
79131;BME280;72396;45.194;9.142;2023-11-18T12:11:19;101397.22;;;21.18;41.45
79131;BME280;72396;45.194;9.142;2023-11-18T12:14:08;101385.97;;;21.25;42.01
79131;BME280;72396;45.194;9.142;2023-11-18T12:16:58;101374.72;;;21.33;42.10
79131;BME280;72396;45.194;9.142;2023-11-18T12:19:29;101374.41;;;21.38;41.86
79131;BME280;72396;45.194;9.142;2023-11-18T12:22:02;101376.13;;;20.71;37.00
79131;BME280;72396;45.194;9.142;2023-11-18T12:24:38;101375.16;;;20.44;39.08
79131;BME280;72396;45.194;9.142;2023-11-18T12:27:05;101383.53;;;20.82;41.09
79131;BME280;72396;45.194;9.142;2023-11-18T12:29:41;101378.97;;;21.10;41.95
79131;BME280;72396;45.194;9.142;2023-11-18T12:32:09;101378.06;;;21.24;42.62
79131;BME280;72396;45.194;9.142;2023-11-18T12:34:52;101375.78;;;21.30;41.31
79131;BME280;72396;45.194;9.142;2023-11-18T12:37:45;101372.78;;;21.35;41.68
79131;BME280;72396;45.194;9.142;2023-11-18T12:40:40;101371.72;;;21.38;41.56
79131;BME280;72396;45.194;9.142;2023-11-18T12:43:15;101367.13;;;21.40;41.77
79131;BME280;72396;45.194;9.142;2023-11-18T12:46:09;101360.56;;;21.44;41.61
79131;BME280;72396;45.194;9.142;2023-11-18T12:48:43;101372.59;;;20.85;38.92
79131;BME280;72396;45.194;9.142;2023-11-18T12:51:10;101371.31;;;20.91;41.51
79131;BME280;72396;45.194;9.142;2023-11-18T12:53:47;101359.91;;;21.14;42.65
79131;BME280;72396;45.194;9.142;2023-11-18T12:56:15;101360.78;;;21.28;42.73
79131;BME280;72396;45.194;9.142;2023-11-18T12:58:42;101371.72;;;21.38;42.05
79131;BME280;72396;45.194;9.142;2023-11-18T13:01:08;101367.03;;;21.41;42.64
79131;BME280;72396;45.194;9.142;2023-11-18T13:03:42;101362.72;;;21.39;41.88